Time,TemperatureF,DewpointF,PressureIn,WindDirection,WindDirectionDegrees,WindSpeedMPH,WindSpeedGustMPH,Humidity,HourlyPrecipIn,Conditions,Clouds,dailyrainin,SolarRadiationWatts/m^2,SoftwareType,DateUTC
2013-05-01 00:03:00,62.0,57.0,-100.00,East,89,2.0,8.0,85,0.00,,,-99.99,0.000000,,2013-05-01 04:03:00,
2013-05-01 00:32:00,62.0,57.0,-100.00,East,92,2.0,6.0,85,0.00,,,-99.99,0.000000,,2013-05-01 04:32:00,
2013-05-01 00:43:00,62.0,57.0,-100.00,East,92,2.0,6.0,85,0.00,,,-99.99,0.000000,,2013-05-01 04:43:00,
2013-05-01 00:52:00,62.0,57.0,-100.00,East,92,2.0,6.0,85,0.00,,,-99.99,0.000000,,2013-05-01 04:52:00,
2013-05-01 01:02:00,62.0,57.0,-100.00,East,92,2.0,6.0,85,0.00,,,-99.99,0.000000,,2013-05-01 05:02:00,
2013-05-01 01:32:00,61.0,57.0,-100.00,East,92,4.0,10.0,86,0.00,,,-99.99,0.000000,,2013-05-01 05:32:00,
2013-05-01 01:42:00,61.0,57.0,-100.00,East,92,4.0,10.0,86,0.00,,,-99.99,0.000000,,2013-05-01 05:42:00,
2013-05-01 01:52:00,61.0,57.0,-100.00,East,92,4.0,10.0,86,0.00,,,-99.99,0.000000,,2013-05-01 05:52:00,
2013-05-01 02:02:00,61.0,57.0,-100.00,East,92,4.0,10.0,86,0.00,,,-99.99,0.000000,,2013-05-01 06:02:00,
2013-05-01 02:32:00,60.0,57.0,-100.00,East,101,3.0,9.0,90,0.00,,,-99.99,0.000000,,2013-05-01 06:32:00,
2013-05-01 02:42:00,60.0,57.0,-100.00,East,101,3.0,9.0,90,0.00,,,-99.99,0.000000,,2013-05-01 06:42:00,
2013-05-01 02:52:00,60.0,57.0,-100.00,East,101,3.0,9.0,90,0.00,,,-99.99,0.000000,,2013-05-01 06:52:00,
2013-05-01 03:01:00,60.0,57.0,-100.00,East,101,3.0,9.0,90,0.00,,,-99.99,0.000000,,2013-05-01 07:01:00,
2013-05-01 03:32:00,59.0,55.0,-100.00,East,95,4.0,10.0,88,0.00,,,-99.99,0.000000,,2013-05-01 07:32:00,
2013-05-01 03:42:00,59.0,55.0,-100.00,East,95,4.0,10.0,88,0.00,,,-99.99,0.000000,,2013-05-01 07:42:00,
2013-05-01 03:52:00,59.0,55.0,-100.00,East,95,4.0,10.0,88,0.00,,,-99.99,0.000000,,2013-05-01 07:52:00,
2013-05-01 04:02:00,59.0,55.0,-100.00,East,95,4.0,10.0,88,0.00,,,-99.99,0.000000,,2013-05-01 08:02:00,
2013-05-01 04:32:00,58.0,54.0,-100.00,East,95,2.0,11.0,88,0.00,,,0.00,0.000000,,2013-05-01 08:32:00,
2013-05-01 04:42:00,58.0,54.0,-100.00,East,95,2.0,11.0,88,0.00,,,0.00,0.000000,,2013-05-01 08:42:00,
2013-05-01 04:53:00,58.0,54.0,-100.00,East,95,2.0,11.0,88,0.00,,,0.00,0.000000,,2013-05-01 08:53:00,
2013-05-01 05:02:00,58.0,54.0,-100.00,East,95,2.0,11.0,88,0.00,,,0.00,0.000000,,2013-05-01 09:02:00,
2013-05-01 05:33:00,57.0,53.0,-100.00,East,96,3.0,8.0,87,0.00,,,-99.99,0.000000,,2013-05-01 09:33:00,
2013-05-01 05:43:00,57.0,53.0,-100.00,East,96,3.0,8.0,87,0.00,,,-99.99,0.000000,,2013-05-01 09:43:00,
2013-05-01 05:53:00,57.0,53.0,-100.00,East,96,3.0,8.0,87,0.00,,,-99.99,0.000000,,2013-05-01 09:53:00,
2013-05-01 06:03:00,57.0,53.0,-100.00,East,96,3.0,8.0,87,0.00,,,-99.99,0.000000,,2013-05-01 10:03:00,
2013-05-01 06:33:00,55.0,52.0,-100.00,ESE,104,3.0,9.0,89,0.00,,,-99.99,0.000000,,2013-05-01 10:33:00,
2013-05-01 06:42:00,55.0,52.0,-100.00,ESE,104,3.0,9.0,89,0.00,,,-99.99,0.000000,,2013-05-01 10:42:00,
2013-05-01 06:53:00,55.0,52.0,-100.00,ESE,104,3.0,9.0,89,0.00,,,-99.99,0.000000,,2013-05-01 10:53:00,
2013-05-01 07:03:00,55.0,52.0,-100.00,ESE,104,3.0,9.0,89,0.00,,,-99.99,0.000000,,2013-05-01 11:03:00,
2013-05-01 07:32:00,54.0,51.0,-100.00,ESE,111,3.0,9.0,91,0.00,,,-99.99,4.000000,,2013-05-01 11:32:00,
2013-05-01 07:42:00,54.0,51.0,-100.00,ESE,111,3.0,9.0,91,0.00,,,-99.99,4.000000,,2013-05-01 11:42:00,
2013-05-01 07:52:00,54.0,51.0,-100.00,ESE,111,3.0,9.0,91,0.00,,,-99.99,4.000000,,2013-05-01 11:52:00,
2013-05-01 08:01:00,54.0,51.0,-100.00,ESE,111,3.0,9.0,91,0.00,,,-99.99,4.000000,,2013-05-01 12:01:00,
2013-05-01 09:32:00,62.0,55.0,-100.00,East,92,3.0,10.0,79,-99.99,,,-99.99,280.000000,,2013-05-01 13:32:00,
2013-05-01 09:42:00,62.0,55.0,-100.00,East,92,3.0,10.0,79,-99.99,,,-99.99,280.000000,,2013-05-01 13:42:00,
2013-05-01 09:52:00,62.0,55.0,-100.00,East,92,3.0,10.0,79,-99.99,,,-99.99,280.000000,,2013-05-01 13:52:00,
2013-05-01 10:02:00,62.0,55.0,-100.00,East,92,3.0,10.0,79,-99.99,,,-99.99,280.000000,,2013-05-01 14:02:00,
2013-05-01 10:32:00,63.0,53.0,-100.00,East,85,4.0,11.0,71,0.00,,,-99.99,446.000000,,2013-05-01 14:32:00,
2013-05-01 10:42:00,63.0,53.0,-100.00,East,85,4.0,11.0,71,0.00,,,-99.99,446.000000,,2013-05-01 14:42:00,
2013-05-01 10:52:00,63.0,53.0,-100.00,East,85,4.0,11.0,71,0.00,,,-99.99,446.000000,,2013-05-01 14:52:00,
2013-05-01 11:01:00,63.0,53.0,-100.00,East,85,4.0,11.0,71,0.00,,,-99.99,446.000000,,2013-05-01 15:01:00,
2013-05-01 11:33:00,64.0,54.0,-100.00,East,100,4.0,10.0,70,0.00,,,-99.99,474.000000,,2013-05-01 15:33:00,
2013-05-01 11:43:00,64.0,54.0,-100.00,East,100,4.0,10.0,70,0.00,,,-99.99,474.000000,,2013-05-01 15:43:00,
2013-05-01 11:53:00,64.0,54.0,-100.00,East,100,4.0,10.0,70,0.00,,,-99.99,474.000000,,2013-05-01 15:53:00,
2013-05-01 12:03:00,64.0,54.0,-100.00,East,100,4.0,10.0,70,0.00,,,-99.99,474.000000,,2013-05-01 16:03:00,
2013-05-01 12:32:00,66.0,53.0,-100.00,East,91,4.0,12.0,62,0.00,,,0.00,487.000000,,2013-05-01 16:32:00,
2013-05-01 12:42:00,66.0,53.0,-100.00,East,91,4.0,12.0,62,0.00,,,0.00,487.000000,,2013-05-01 16:42:00,
2013-05-01 12:53:00,66.0,53.0,-100.00,East,91,4.0,12.0,62,0.00,,,0.00,487.000000,,2013-05-01 16:53:00,
2013-05-01 13:02:00,66.0,53.0,-100.00,East,91,4.0,12.0,62,0.00,,,0.00,487.000000,,2013-05-01 17:02:00,
2013-05-01 13:32:00,67.0,53.0,-100.00,ESE,107,5.0,14.0,60,0.00,,,-99.99,634.000000,,2013-05-01 17:32:00,
2013-05-01 13:42:00,67.0,53.0,-100.00,ESE,107,5.0,14.0,60,0.00,,,-99.99,634.000000,,2013-05-01 17:42:00,
2013-05-01 13:52:00,67.0,53.0,-100.00,ESE,107,5.0,14.0,60,0.00,,,-99.99,634.000000,,2013-05-01 17:52:00,
2013-05-01 14:02:00,67.0,53.0,-100.00,ESE,107,5.0,14.0,60,0.00,,,-99.99,634.000000,,2013-05-01 18:02:00,
2013-05-01 14:32:00,69.0,53.0,-100.00,East,93,4.0,13.0,57,0.00,,,0.00,785.000000,,2013-05-01 18:32:00,
2013-05-01 14:42:00,69.0,53.0,-100.00,East,93,4.0,13.0,57,0.00,,,0.00,785.000000,,2013-05-01 18:42:00,
2013-05-01 14:52:00,69.0,53.0,-100.00,East,93,4.0,13.0,57,0.00,,,0.00,785.000000,,2013-05-01 18:52:00,
2013-05-01 15:02:00,69.0,53.0,-100.00,East,93,4.0,13.0,57,0.00,,,0.00,785.000000,,2013-05-01 19:02:00,
2013-05-01 15:32:00,68.0,50.0,-100.00,East,87,4.0,13.0,53,0.00,,,0.00,676.000000,,2013-05-01 19:32:00,
2013-05-01 15:43:00,68.0,50.0,-100.00,East,87,4.0,13.0,53,0.00,,,0.00,676.000000,,2013-05-01 19:43:00,
2013-05-01 15:52:00,68.0,50.0,-100.00,East,87,4.0,13.0,53,0.00,,,0.00,676.000000,,2013-05-01 19:52:00,
2013-05-01 16:02:00,68.0,50.0,-100.00,East,87,4.0,13.0,53,0.00,,,0.00,676.000000,,2013-05-01 20:02:00,
2013-05-01 16:32:00,68.0,54.0,-100.00,ESE,118,4.0,10.0,60,0.00,,,0.00,449.000000,,2013-05-01 20:32:00,
2013-05-01 16:42:00,68.0,54.0,-100.00,ESE,118,4.0,10.0,60,0.00,,,0.00,449.000000,,2013-05-01 20:42:00,
2013-05-01 16:52:00,68.0,54.0,-100.00,ESE,118,4.0,10.0,60,0.00,,,0.00,449.000000,,2013-05-01 20:52:00,
2013-05-01 17:01:00,68.0,54.0,-100.00,ESE,118,4.0,10.0,60,0.00,,,0.00,449.000000,,2013-05-01 21:01:00,
2013-05-01 17:32:00,67.0,53.0,-100.00,ESE,105,4.0,12.0,61,0.00,,,0.00,398.000000,,2013-05-01 21:32:00,
2013-05-01 17:43:00,67.0,53.0,-100.00,ESE,105,4.0,12.0,61,0.00,,,0.00,398.000000,,2013-05-01 21:43:00,
2013-05-01 17:53:00,67.0,53.0,-100.00,ESE,105,4.0,12.0,61,0.00,,,0.00,398.000000,,2013-05-01 21:53:00,
2013-05-01 18:03:00,67.0,53.0,-100.00,ESE,105,4.0,12.0,61,0.00,,,0.00,398.000000,,2013-05-01 22:03:00,
2013-05-01 18:33:00,65.0,53.0,-100.00,ESE,105,3.0,14.0,66,0.00,,,0.00,261.000000,,2013-05-01 22:33:00,
2013-05-01 18:42:00,65.0,53.0,-100.00,ESE,105,3.0,14.0,66,0.00,,,0.00,261.000000,,2013-05-01 22:42:00,
2013-05-01 18:53:00,65.0,53.0,-100.00,ESE,105,3.0,14.0,66,0.00,,,0.00,261.000000,,2013-05-01 22:53:00,
2013-05-01 19:02:00,65.0,53.0,-100.00,ESE,105,3.0,14.0,66,0.00,,,0.00,261.000000,,2013-05-01 23:02:00,
2013-05-01 19:32:00,63.0,52.0,-100.00,ESE,104,3.0,12.0,68,0.00,,,0.00,144.000000,,2013-05-01 23:32:00,
2013-05-01 19:42:00,63.0,52.0,-100.00,ESE,104,3.0,12.0,68,0.00,,,0.00,144.000000,,2013-05-01 23:42:00,
2013-05-01 19:52:00,63.0,52.0,-100.00,ESE,104,3.0,12.0,68,0.00,,,0.00,144.000000,,2013-05-01 23:52:00,
2013-05-01 20:01:00,63.0,52.0,-100.00,ESE,104,3.0,12.0,68,0.00,,,0.00,144.000000,,2013-05-02 00:01:00,
2013-05-01 21:32:00,60.0,52.0,-100.00,East,99,4.0,12.0,75,-99.99,,,0.00,1.000000,,2013-05-02 01:32:00,
2013-05-01 21:42:00,60.0,52.0,-100.00,East,99,4.0,12.0,75,-99.99,,,0.00,1.000000,,2013-05-02 01:42:00,
2013-05-01 21:52:00,60.0,52.0,-100.00,East,99,4.0,12.0,75,-99.99,,,0.00,1.000000,,2013-05-02 01:52:00,
2013-05-01 22:02:00,60.0,52.0,-100.00,East,99,4.0,12.0,75,-99.99,,,0.00,1.000000,,2013-05-02 02:02:00,
2013-05-01 22:32:00,59.0,53.0,-100.00,East,98,5.0,15.0,80,0.00,,,0.00,0.000000,,2013-05-02 02:32:00,
2013-05-01 22:42:00,59.0,53.0,-100.00,East,98,5.0,15.0,80,0.00,,,0.00,0.000000,,2013-05-02 02:42:00,
2013-05-01 22:51:00,59.0,53.0,-100.00,East,98,5.0,15.0,80,0.00,,,0.00,0.000000,,2013-05-02 02:51:00,
2013-05-01 23:01:00,59.0,53.0,-100.00,East,98,5.0,15.0,80,0.00,,,0.00,0.000000,,2013-05-02 03:01:00,
2013-05-01 23:33:00,58.0,53.0,-100.00,ESE,104,5.0,12.0,82,0.00,,,0.00,0.000000,,2013-05-02 03:33:00,
2013-05-01 23:43:00,58.0,53.0,-100.00,ESE,104,5.0,12.0,82,0.00,,,0.00,0.000000,,2013-05-02 03:43:00,
2013-05-01 23:53:00,58.0,53.0,-100.00,ESE,104,5.0,12.0,82,0.00,,,0.00,0.000000,,2013-05-02 03:53:00,